• Join FlightAware (Why Join?)
  • Login
  • US Flag 
09:42AM EST


 

Airport Tracker/Info


-or-


 

Live Flight TrackerFlight Track Log ✈ CSN6818 ✈ 13-Sep-2013 ✈ ZWTN / HTN - ZWWW / URC

Flight Track Log - Related Links

Times and Time Zones

All times are in EDT time to prevent confusion due to time zone crossing. See the CSN6818 flight status page for this flight to view local times or setup timezone preferences in your user account.

Time Position Orientation Groundspeed Altitude Reporting Facility
EDT Latitude Longitude Course Direction KTS MPH feet Rate Location/Type
11:29PM 40.9582 83.9451 38° Northeast  Level Estimated
11:30PM 41.0783 84.0802 40° Northeast  Level Estimated
11:31PM 41.1982 84.2158 40° Northeast  Level Estimated
11:32PM 41.3180 84.3519 40° Northeast  Level Estimated
11:33PM 41.4376 84.4884 41° Northeast  Level Estimated
11:34PM 41.5571 84.6255 41° Northeast  Level Estimated
11:35PM 41.6764 84.7631 41° Northeast  Level Estimated
11:36PM 41.7955 84.9012 41° Northeast  Level Estimated
11:37PM 41.9145 85.0398 41° Northeast  Level Estimated
11:38PM 42.0333 85.1789 41° Northeast  Level Estimated
11:39PM 42.1519 85.3186 41° Northeast  Level Estimated
11:40PM 42.2704 85.4587 41° Northeast  Level Estimated
11:41PM 42.3886 85.5994 41° Northeast  Level Estimated
11:42PM 42.5067 85.7407 41° Northeast  Level Estimated
11:43PM 42.6247 85.8824 41° Northeast  Level Estimated
11:44PM 42.7424 86.0247 42° Northeast  Level Estimated
11:45PM 42.8600 86.1676 42° Northeast  Level Estimated
11:46PM 42.9774 86.3110 42° Northeast  Level Estimated
11:47PM 43.0947 86.4549 42° Northeast  Level Estimated
11:48PM 43.2117 86.5994 42° Northeast  Level Estimated
11:49PM 43.3286 86.7444 42° Northeast  Level Estimated
11:50PM 43.4453 86.8900 42° Northeast  Level Estimated
11:51PM 43.5617 87.0362 42° Northeast  Level Estimated
11:52PM 43.6781 87.1829 42° Northeast  Level Estimated
11:53PM 43.7942 87.3302 42° Northeast  Level Estimated
11:54PM 43.9071 87.4742 43° Northeast  Level Estimated
11:55PM 43.9071 87.4742 144° Southeast  Level Estimated
11:56PM 43.9071 87.4742 144° Southeast  Level Estimated
11:57PM 43.9071 87.4742 144° Southeast  Level Estimated
11:58PM 43.9071 87.4742 144° Southeast  Level Estimated
11:59PM 43.9071 87.4742 144° Southeast  Level Estimated
12:00AM 43.9071 87.4742 144° Southeast  Level Estimated
12:01AM 43.9071 87.4742 144° Southeast  Level Estimated
12:02AM 43.9071 87.4742 144° Southeast  Level Estimated
12:03AM 43.9071 87.4742 144° Southeast  Level Estimated
12:04AM 43.9071 87.4742 144° Southeast  Level Estimated
12:05AM 43.9071 87.4742 144° Southeast  Level Estimated
12:06AM 43.9071 87.4742 144° Southeast  Level Estimated
12:07AM 43.9071 87.4742 144° Southeast  Level Estimated
12:08AM 43.9071 87.4742 144° Southeast  Level Estimated
12:09AM 43.9071 87.4742 144° Southeast  Level Estimated
12:10AM 43.9071 87.4742 144° Southeast  Level Estimated